sensor_id;sensor_type;location;lat;lon;timestamp;temperature;humidity
9980;DHT22;5030;51.532;6.766;2022-08-21T00:01:49;16.20;99.90
9980;DHT22;5030;51.532;6.766;2022-08-21T00:04:14;16.10;99.90
9980;DHT22;5030;51.532;6.766;2022-08-21T00:06:41;16.10;99.90
9980;DHT22;5030;51.532;6.766;2022-08-21T00:09:08;16.00;99.90
9980;DHT22;5030;51.532;6.766;2022-08-21T00:11:35;16.00;99.90
9980;DHT22;5030;51.532;6.766;2022-08-21T00:14:02;15.90;99.90
9980;DHT22;5030;51.532;6.766;2022-08-21T00:16:28;15.90;99.90
9980;DHT22;5030;51.532;6.766;2022-08-21T00:18:54;15.80;99.90
9980;DHT22;5030;51.532;6.766;2022-08-21T00:21:19;15.80;99.90
9980;DHT22;5030;51.532;6.766;2022-08-21T00:23:45;15.70;99.90
9980;DHT22;5030;51.532;6.766;2022-08-21T00:26:11;15.70;99.90
9980;DHT22;5030;51.532;6.766;2022-08-21T00:28:36;15.60;99.90
9980;DHT22;5030;51.532;6.766;2022-08-21T00:31:02;15.60;99.90
9980;DHT22;5030;51.532;6.766;2022-08-21T00:33:30;15.60;99.90
9980;DHT22;5030;51.532;6.766;2022-08-21T00:35:56;15.50;99.90
9980;DHT22;5030;51.532;6.766;2022-08-21T00:38:22;15.50;99.90
9980;DHT22;5030;51.532;6.766;2022-08-21T00:40:51;15.40;99.90
9980;DHT22;5030;51.532;6.766;2022-08-21T00:43:21;15.30;99.90
9980;DHT22;5030;51.532;6.766;2022-08-21T00:45:48;15.30;99.90
9980;DHT22;5030;51.532;6.766;2022-08-21T00:48:15;15.20;99.90
9980;DHT22;5030;51.532;6.766;2022-08-21T00:51:36;15.20;99.90
9980;DHT22;5030;51.532;6.766;2022-08-21T00:53:39;15.20;99.90
9980;DHT22;5030;51.532;6.766;2022-08-21T00:56:07;15.20;99.90
9980;DHT22;5030;51.532;6.766;2022-08-21T00:58:34;15.20;99.90
9980;DHT22;5030;51.532;6.766;2022-08-21T01:01:02;15.10;99.90
9980;DHT22;5030;51.532;6.766;2022-08-21T01:03:28;15.00;99.90
9980;DHT22;5030;51.532;6.766;2022-08-21T01:05:54;15.00;99.90
9980;DHT22;5030;51.532;6.766;2022-08-21T01:08:20;14.90;99.90
9980;DHT22;5030;51.532;6.766;2022-08-21T01:10:47;14.90;99.90
9980;DHT22;5030;51.532;6.766;2022-08-21T01:13:15;14.80;99.90
9980;DHT22;5030;51.532;6.766;2022-08-21T01:15:46;14.70;99.90
9980;DHT22;5030;51.532;6.766;2022-08-21T01:18:15;14.70;99.90
9980;DHT22;5030;51.532;6.766;2022-08-21T01:23:31;14.70;99.90
9980;DHT22;5030;51.532;6.766;2022-08-21T01:25:57;14.70;99.90
9980;DHT22;5030;51.532;6.766;2022-08-21T01:28:23;14.60;99.90
9980;DHT22;5030;51.532;6.766;2022-08-21T01:30:50;14.60;99.90
9980;DHT22;5030;51.532;6.766;2022-08-21T01:33:18;14.50;99.90
9980;DHT22;5030;51.532;6.766;2022-08-21T01:35:45;14.50;99.90
9980;DHT22;5030;51.532;6.766;2022-08-21T01:38:11;14.50;99.90
9980;DHT22;5030;51.532;6.766;2022-08-21T01:40:37;14.40;99.90
9980;DHT22;5030;51.532;6.766;2022-08-21T01:43:03;14.40;99.90
9980;DHT22;5030;51.532;6.766;2022-08-21T01:45:29;14.40;99.90
9980;DHT22;5030;51.532;6.766;2022-08-21T01:47:55;14.30;99.90
9980;DHT22;5030;51.532;6.766;2022-08-21T01:50:21;14.30;99.90
9980;DHT22;5030;51.532;6.766;2022-08-21T01:52:47;14.20;99.90
9980;DHT22;5030;51.532;6.766;2022-08-21T01:55:15;14.20;99.90
9980;DHT22;5030;51.532;6.766;2022-08-21T01:57:41;14.10;99.90
9980;DHT22;5030;51.532;6.766;2022-08-21T02:00:11;14.20;99.90
9980;DHT22;5030;51.532;6.766;2022-08-21T02:02:38;14.10;99.90
9980;DHT22;5030;51.532;6.766;2022-08-21T02:05:05;14.10;99.90
9980;DHT22;5030;51.532;6.766;2022-08-21T02:07:45;14.00;99.90
9980;DHT22;5030;51.532;6.766;2022-08-21T02:10:15;14.00;99.90
9980;DHT22;5030;51.532;6.766;2022-08-21T02:12:41;14.00;99.90
9980;DHT22;5030;51.532;6.766;2022-08-21T02:15:08;14.00;99.90
9980;DHT22;5030;51.532;6.766;2022-08-21T02:17:46;14.00;99.90
9980;DHT22;5030;51.532;6.766;2022-08-21T02:20:18;14.00;99.90
9980;DHT22;5030;51.532;6.766;2022-08-21T02:22:44;14.00;99.90
9980;DHT22;5030;51.532;6.766;2022-08-21T02:25:09;14.10;99.90
9980;DHT22;5030;51.532;6.766;2022-08-21T02:27:42;14.10;99.90
9980;DHT22;5030;51.532;6.766;2022-08-21T02:30:12;14.10;99.90
9980;DHT22;5030;51.532;6.766;2022-08-21T02:32:38;14.20;99.90
9980;DHT22;5030;51.532;6.766;2022-08-21T02:35:05;14.20;99.90
9980;DHT22;5030;51.532;6.766;2022-08-21T02:37:31;14.20;99.90
9980;DHT22;5030;51.532;6.766;2022-08-21T02:39:56;14.20;99.90
9980;DHT22;5030;51.532;6.766;2022-08-21T02:42:22;14.30;99.90
9980;DHT22;5030;51.532;6.766;2022-08-21T02:44:48;14.30;99.90
9980;DHT22;5030;51.532;6.766;2022-08-21T02:47:14;14.30;99.90
9980;DHT22;5030;51.532;6.766;2022-08-21T02:49:39;14.20;99.90
9980;DHT22;5030;51.532;6.766;2022-08-21T02:52:05;14.20;99.90
9980;DHT22;5030;51.532;6.766;2022-08-21T02:54:31;14.20;99.90
9980;DHT22;5030;51.532;6.766;2022-08-21T02:56:57;14.10;99.90
9980;DHT22;5030;51.532;6.766;2022-08-21T02:59:23;14.10;99.90
9980;DHT22;5030;51.532;6.766;2022-08-21T03:01:48;14.00;99.90
9980;DHT22;5030;51.532;6.766;2022-08-21T03:04:14;14.00;99.90
9980;DHT22;5030;51.532;6.766;2022-08-21T03:06:40;13.90;99.90
9980;DHT22;5030;51.532;6.766;2022-08-21T03:09:05;13.90;99.90
9980;DHT22;5030;51.532;6.766;2022-08-21T03:11:31;13.80;99.90
9980;DHT22;5030;51.532;6.766;2022-08-21T03:13:57;13.80;99.90
9980;DHT22;5030;51.532;6.766;2022-08-21T03:16:22;13.80;99.90
9980;DHT22;5030;51.532;6.766;2022-08-21T03:18:48;13.70;99.90
9980;DHT22;5030;51.532;6.766;2022-08-21T03:21:14;13.70;99.90
9980;DHT22;5030;51.532;6.766;2022-08-21T03:23:39;13.70;99.90
9980;DHT22;5030;51.532;6.766;2022-08-21T03:26:07;13.70;99.90
9980;DHT22;5030;51.532;6.766;2022-08-21T03:28:33;13.70;99.90
9980;DHT22;5030;51.532;6.766;2022-08-21T03:30:59;13.70;99.90
9980;DHT22;5030;51.532;6.766;2022-08-21T03:33:24;13.70;99.90
9980;DHT22;5030;51.532;6.766;2022-08-21T03:36:06;13.60;99.90
9980;DHT22;5030;51.532;6.766;2022-08-21T03:38:33;13.70;99.90
9980;DHT22;5030;51.532;6.766;2022-08-21T03:41:00;13.60;99.90
9980;DHT22;5030;51.532;6.766;2022-08-21T03:43:27;13.60;99.90
9980;DHT22;5030;51.532;6.766;2022-08-21T03:45:53;13.60;99.90
9980;DHT22;5030;51.532;6.766;2022-08-21T03:48:19;13.60;99.90
9980;DHT22;5030;51.532;6.766;2022-08-21T03:50:45;13.60;99.90
9980;DHT22;5030;51.532;6.766;2022-08-21T03:53:13;13.60;99.90
9980;DHT22;5030;51.532;6.766;2022-08-21T03:55:39;13.60;99.90
9980;DHT22;5030;51.532;6.766;2022-08-21T03:58:05;13.60;99.90
9980;DHT22;5030;51.532;6.766;2022-08-21T04:00:31;13.60;99.90
9980;DHT22;5030;51.532;6.766;2022-08-21T04:02:57;13.60;99.90
9980;DHT22;5030;51.532;6.766;2022-08-21T04:05:23;13.70;99.90
9980;DHT22;5030;51.532;6.766;2022-08-21T04:08:00;13.60;99.90
9980;DHT22;5030;51.532;6.766;2022-08-21T04:10:29;13.60;99.90
9980;DHT22;5030;51.532;6.766;2022-08-21T04:12:55;13.50;99.90
9980;DHT22;5030;51.532;6.766;2022-08-21T04:15:23;13.50;99.90
9980;DHT22;5030;51.532;6.766;2022-08-21T04:17:49;13.60;99.90
9980;DHT22;5030;51.532;6.766;2022-08-21T04:20:17;13.70;99.90
9980;DHT22;5030;51.532;6.766;2022-08-21T04:22:43;13.70;99.90
9980;DHT22;5030;51.532;6.766;2022-08-21T04:25:12;13.80;99.90
9980;DHT22;5030;51.532;6.766;2022-08-21T04:27:38;13.80;99.90
9980;DHT22;5030;51.532;6.766;2022-08-21T04:30:06;13.90;99.90
9980;DHT22;5030;51.532;6.766;2022-08-21T04:32:32;13.90;99.90
9980;DHT22;5030;51.532;6.766;2022-08-21T04:34:59;13.90;99.90
9980;DHT22;5030;51.532;6.766;2022-08-21T04:37:26;13.90;99.90
9980;DHT22;5030;51.532;6.766;2022-08-21T04:39:52;13.90;99.90
9980;DHT22;5030;51.532;6.766;2022-08-21T04:42:18;13.80;99.90
9980;DHT22;5030;51.532;6.766;2022-08-21T04:44:44;13.80;99.90
9980;DHT22;5030;51.532;6.766;2022-08-21T04:47:09;13.80;99.90
9980;DHT22;5030;51.532;6.766;2022-08-21T04:49:35;13.90;99.90
9980;DHT22;5030;51.532;6.766;2022-08-21T04:52:02;13.90;99.90
9980;DHT22;5030;51.532;6.766;2022-08-21T04:54:28;13.90;99.90
9980;DHT22;5030;51.532;6.766;2022-08-21T04:57:00;14.00;99.90
9980;DHT22;5030;51.532;6.766;2022-08-21T04:59:36;14.00;99.90
9980;DHT22;5030;51.532;6.766;2022-08-21T05:02:06;14.10;99.90
9980;DHT22;5030;51.532;6.766;2022-08-21T05:04:33;14.10;99.90
9980;DHT22;5030;51.532;6.766;2022-08-21T05:07:02;14.10;99.90
9980;DHT22;5030;51.532;6.766;2022-08-21T05:09:29;14.10;99.90
9980;DHT22;5030;51.532;6.766;2022-08-21T05:11:56;14.10;99.90
9980;DHT22;5030;51.532;6.766;2022-08-21T05:14:21;14.20;99.90
9980;DHT22;5030;51.532;6.766;2022-08-21T05:16:47;14.20;99.90
9980;DHT22;5030;51.532;6.766;2022-08-21T05:19:13;14.20;99.90
9980;DHT22;5030;51.532;6.766;2022-08-21T05:21:42;14.30;99.90
9980;DHT22;5030;51.532;6.766;2022-08-21T05:24:08;14.30;99.90
9980;DHT22;5030;51.532;6.766;2022-08-21T05:26:33;14.30;99.90
9980;DHT22;5030;51.532;6.766;2022-08-21T05:28:59;14.30;99.90
9980;DHT22;5030;51.532;6.766;2022-08-21T05:31:25;14.40;99.90
9980;DHT22;5030;51.532;6.766;2022-08-21T05:33:50;14.40;99.90
9980;DHT22;5030;51.532;6.766;2022-08-21T05:36:17;14.40;99.90
9980;DHT22;5030;51.532;6.766;2022-08-21T05:38:43;14.60;99.90
9980;DHT22;5030;51.532;6.766;2022-08-21T05:41:09;14.60;99.90
9980;DHT22;5030;51.532;6.766;2022-08-21T05:43:35;14.70;99.90
9980;DHT22;5030;51.532;6.766;2022-08-21T05:46:06;14.70;99.90
9980;DHT22;5030;51.532;6.766;2022-08-21T05:48:33;14.80;99.90
9980;DHT22;5030;51.532;6.766;2022-08-21T05:51:08;14.80;99.90
9980;DHT22;5030;51.532;6.766;2022-08-21T05:53:34;14.90;99.90
9980;DHT22;5030;51.532;6.766;2022-08-21T05:55:59;14.90;99.90
9980;DHT22;5030;51.532;6.766;2022-08-21T05:58:25;15.00;99.90
9980;DHT22;5030;51.532;6.766;2022-08-21T06:00:51;15.20;99.90
9980;DHT22;5030;51.532;6.766;2022-08-21T06:03:22;15.30;99.90
9980;DHT22;5030;51.532;6.766;2022-08-21T06:05:48;15.40;99.90
9980;DHT22;5030;51.532;6.766;2022-08-21T06:08:15;15.40;99.90
9980;DHT22;5030;51.532;6.766;2022-08-21T06:10:42;15.50;99.90
9980;DHT22;5030;51.532;6.766;2022-08-21T06:13:07;15.60;99.90
9980;DHT22;5030;51.532;6.766;2022-08-21T06:15:34;15.60;99.90
9980;DHT22;5030;51.532;6.766;2022-08-21T06:18:00;15.70;99.90
9980;DHT22;5030;51.532;6.766;2022-08-21T06:20:25;16.00;99.90
9980;DHT22;5030;51.532;6.766;2022-08-21T06:22:51;16.20;99.90
9980;DHT22;5030;51.532;6.766;2022-08-21T06:25:17;16.40;99.90
9980;DHT22;5030;51.532;6.766;2022-08-21T06:27:43;16.50;99.90
9980;DHT22;5030;51.532;6.766;2022-08-21T06:30:09;16.60;99.90
9980;DHT22;5030;51.532;6.766;2022-08-21T06:32:35;16.70;99.90
9980;DHT22;5030;51.532;6.766;2022-08-21T06:35:02;16.90;99.90
9980;DHT22;5030;51.532;6.766;2022-08-21T06:37:29;16.90;99.90
9980;DHT22;5030;51.532;6.766;2022-08-21T06:39:54;17.00;99.90
9980;DHT22;5030;51.532;6.766;2022-08-21T06:42:20;17.00;99.90
9980;DHT22;5030;51.532;6.766;2022-08-21T06:44:46;17.00;99.90
9980;DHT22;5030;51.532;6.766;2022-08-21T06:47:14;17.10;99.90
9980;DHT22;5030;51.532;6.766;2022-08-21T06:49:39;17.20;99.90
9980;DHT22;5030;51.532;6.766;2022-08-21T06:52:10;17.20;99.90
9980;DHT22;5030;51.532;6.766;2022-08-21T06:54:36;17.30;99.90
9980;DHT22;5030;51.532;6.766;2022-08-21T06:57:02;17.40;99.90
9980;DHT22;5030;51.532;6.766;2022-08-21T06:59:28;17.30;99.90
9980;DHT22;5030;51.532;6.766;2022-08-21T07:01:53;17.30;99.90
9980;DHT22;5030;51.532;6.766;2022-08-21T07:04:19;17.40;99.90
9980;DHT22;5030;51.532;6.766;2022-08-21T07:06:45;17.50;99.90
9980;DHT22;5030;51.532;6.766;2022-08-21T07:09:11;17.70;99.90
9980;DHT22;5030;51.532;6.766;2022-08-21T07:11:37;17.70;99.90
9980;DHT22;5030;51.532;6.766;2022-08-21T07:14:04;17.70;99.90
9980;DHT22;5030;51.532;6.766;2022-08-21T07:16:29;17.80;99.90
9980;DHT22;5030;51.532;6.766;2022-08-21T07:18:56;17.80;99.90
9980;DHT22;5030;51.532;6.766;2022-08-21T07:21:22;17.90;99.90
9980;DHT22;5030;51.532;6.766;2022-08-21T07:23:49;17.90;99.90
9980;DHT22;5030;51.532;6.766;2022-08-21T07:26:18;17.80;99.90
9980;DHT22;5030;51.532;6.766;2022-08-21T07:28:45;17.80;99.90
9980;DHT22;5030;51.532;6.766;2022-08-21T07:31:14;17.90;99.90
9980;DHT22;5030;51.532;6.766;2022-08-21T07:33:40;17.90;99.90
9980;DHT22;5030;51.532;6.766;2022-08-21T07:36:07;18.10;99.90
9980;DHT22;5030;51.532;6.766;2022-08-21T07:38:33;18.20;99.90
9980;DHT22;5030;51.532;6.766;2022-08-21T07:41:00;18.10;99.90
9980;DHT22;5030;51.532;6.766;2022-08-21T07:43:27;18.10;99.90
9980;DHT22;5030;51.532;6.766;2022-08-21T07:45:53;18.10;99.90
9980;DHT22;5030;51.532;6.766;2022-08-21T07:48:20;18.30;99.90
9980;DHT22;5030;51.532;6.766;2022-08-21T07:50:47;18.40;99.90
9980;DHT22;5030;51.532;6.766;2022-08-21T07:53:13;18.40;99.90
9980;DHT22;5030;51.532;6.766;2022-08-21T07:55:38;18.40;99.90
9980;DHT22;5030;51.532;6.766;2022-08-21T07:58:04;18.60;99.90
9980;DHT22;5030;51.532;6.766;2022-08-21T08:00:30;18.50;99.90
9980;DHT22;5030;51.532;6.766;2022-08-21T08:02:57;18.60;99.90
9980;DHT22;5030;51.532;6.766;2022-08-21T08:05:29;18.50;99.90
9980;DHT22;5030;51.532;6.766;2022-08-21T08:07:55;18.50;99.90
9980;DHT22;5030;51.532;6.766;2022-08-21T08:10:22;18.50;99.90
9980;DHT22;5030;51.532;6.766;2022-08-21T08:12:48;18.60;99.90
9980;DHT22;5030;51.532;6.766;2022-08-21T08:15:19;18.60;99.90
9980;DHT22;5030;51.532;6.766;2022-08-21T08:17:45;18.70;99.90
9980;DHT22;5030;51.532;6.766;2022-08-21T08:20:12;18.80;99.90
9980;DHT22;5030;51.532;6.766;2022-08-21T08:22:39;18.90;99.90
9980;DHT22;5030;51.532;6.766;2022-08-21T08:25:06;18.80;99.90
9980;DHT22;5030;51.532;6.766;2022-08-21T08:27:33;18.90;99.90
9980;DHT22;5030;51.532;6.766;2022-08-21T08:29:59;18.90;99.90
9980;DHT22;5030;51.532;6.766;2022-08-21T08:32:24;19.00;99.90
9980;DHT22;5030;51.532;6.766;2022-08-21T08:34:50;19.00;99.90
9980;DHT22;5030;51.532;6.766;2022-08-21T08:37:18;19.10;99.90
9980;DHT22;5030;51.532;6.766;2022-08-21T08:39:44;19.20;99.90
9980;DHT22;5030;51.532;6.766;2022-08-21T08:42:31;19.30;99.90
9980;DHT22;5030;51.532;6.766;2022-08-21T08:45:02;19.50;99.90
9980;DHT22;5030;51.532;6.766;2022-08-21T08:47:30;19.70;99.90
9980;DHT22;5030;51.532;6.766;2022-08-21T08:52:52;19.80;99.90
9980;DHT22;5030;51.532;6.766;2022-08-21T08:55:40;19.70;99.90
9980;DHT22;5030;51.532;6.766;2022-08-21T08:58:10;19.80;99.90
9980;DHT22;5030;51.532;6.766;2022-08-21T09:00:38;19.90;99.90
9980;DHT22;5030;51.532;6.766;2022-08-21T09:03:04;19.80;99.90
9980;DHT22;5030;51.532;6.766;2022-08-21T09:21:53;20.20;99.90
9980;DHT22;5030;51.532;6.766;2022-08-21T09:27:22;20.30;99.50
9980;DHT22;5030;51.532;6.766;2022-08-21T09:29:53;20.30;99.90
9980;DHT22;5030;51.532;6.766;2022-08-21T09:32:23;20.40;97.20
9980;DHT22;5030;51.532;6.766;2022-08-21T09:35:19;20.40;97.40
9980;DHT22;5030;51.532;6.766;2022-08-21T09:37:51;20.50;96.20
9980;DHT22;5030;51.532;6.766;2022-08-21T09:43:02;20.80;94.30
9980;DHT22;5030;51.532;6.766;2022-08-21T09:45:29;21.00;90.90
9980;DHT22;5030;51.532;6.766;2022-08-21T09:47:55;21.00;91.40
9980;DHT22;5030;51.532;6.766;2022-08-21T09:50:26;21.10;91.30
9980;DHT22;5030;51.532;6.766;2022-08-21T09:52:57;21.10;90.10
9980;DHT22;5030;51.532;6.766;2022-08-21T09:58:15;21.40;91.10
9980;DHT22;5030;51.532;6.766;2022-08-21T10:00:41;21.40;88.80
9980;DHT22;5030;51.532;6.766;2022-08-21T10:03:13;21.30;84.60
9980;DHT22;5030;51.532;6.766;2022-08-21T10:05:40;21.30;87.60
9980;DHT22;5030;51.532;6.766;2022-08-21T10:08:22;21.30;92.50
9980;DHT22;5030;51.532;6.766;2022-08-21T10:10:56;21.40;82.70
9980;DHT22;5030;51.532;6.766;2022-08-21T10:13:56;21.50;85.90
9980;DHT22;5030;51.532;6.766;2022-08-21T10:22:00;22.00;80.20
9980;DHT22;5030;51.532;6.766;2022-08-21T10:35:04;22.30;64.50
9980;DHT22;5030;51.532;6.766;2022-08-21T10:40:54;22.80;70.50
9980;DHT22;5030;51.532;6.766;2022-08-21T10:46:10;23.10;54.00
9980;DHT22;5030;51.532;6.766;2022-08-21T10:48:49;23.40;59.20
9980;DHT22;5030;51.532;6.766;2022-08-21T10:51:34;23.60;51.10
9980;DHT22;5030;51.532;6.766;2022-08-21T10:54:24;23.90;51.00
9980;DHT22;5030;51.532;6.766;2022-08-21T10:56:58;23.90;47.30
9980;DHT22;5030;51.532;6.766;2022-08-21T10:59:28;23.70;46.40
9980;DHT22;5030;51.532;6.766;2022-08-21T11:02:00;23.70;49.00
9980;DHT22;5030;51.532;6.766;2022-08-21T11:04:40;24.00;49.70
9980;DHT22;5030;51.532;6.766;2022-08-21T11:09:56;23.90;49.70
9980;DHT22;5030;51.532;6.766;2022-08-21T11:12:52;23.90;39.20
9980;DHT22;5030;51.532;6.766;2022-08-21T11:20:46;23.50;38.40
9980;DHT22;5030;51.532;6.766;2022-08-21T11:23:22;23.50;43.50
9980;DHT22;5030;51.532;6.766;2022-08-21T11:25:57;23.70;47.80
9980;DHT22;5030;51.532;6.766;2022-08-21T11:29:50;23.80;32.30
9980;DHT22;5030;51.532;6.766;2022-08-21T11:50:30;24.00;31.00
9980;DHT22;5030;51.532;6.766;2022-08-21T11:53:17;24.30;33.40
9980;DHT22;5030;51.532;6.766;2022-08-21T11:59:07;24.30;27.70
9980;DHT22;5030;51.532;6.766;2022-08-21T12:01:40;24.30;20.60
9980;DHT22;5030;51.532;6.766;2022-08-21T12:04:16;24.50;22.10
9980;DHT22;5030;51.532;6.766;2022-08-21T12:06:44;24.70;22.50
9980;DHT22;5030;51.532;6.766;2022-08-21T12:09:33;24.50;23.40
9980;DHT22;5030;51.532;6.766;2022-08-21T12:12:12;24.50;16.40
9980;DHT22;5030;51.532;6.766;2022-08-21T12:14:49;24.40;25.50
9980;DHT22;5030;51.532;6.766;2022-08-21T12:17:24;24.70;28.40
9980;DHT22;5030;51.532;6.766;2022-08-21T12:22:49;24.90;15.40
9980;DHT22;5030;51.532;6.766;2022-08-21T12:25:19;24.70;31.30
9980;DHT22;5030;51.532;6.766;2022-08-21T12:27:52;24.90;28.00
9980;DHT22;5030;51.532;6.766;2022-08-21T12:33:04;25.20;14.10
9980;DHT22;5030;51.532;6.766;2022-08-21T12:38:39;25.10;15.00
9980;DHT22;5030;51.532;6.766;2022-08-21T12:41:30;25.10;16.60
9980;DHT22;5030;51.532;6.766;2022-08-21T12:44:21;25.40;9.80
9980;DHT22;5030;51.532;6.766;2022-08-21T12:47:06;25.50;13.20
9980;DHT22;5030;51.532;6.766;2022-08-21T12:49:48;25.50;11.20
9980;DHT22;5030;51.532;6.766;2022-08-21T12:53:04;25.40;8.20
9980;DHT22;5030;51.532;6.766;2022-08-21T12:55:15;25.90;12.10
9980;DHT22;5030;51.532;6.766;2022-08-21T12:57:52;25.80;4.60
9980;DHT22;5030;51.532;6.766;2022-08-21T13:00:21;25.70;5.90
9980;DHT22;5030;51.532;6.766;2022-08-21T13:02:49;25.70;6.40
9980;DHT22;5030;51.532;6.766;2022-08-21T13:05:32;26.10;6.20
9980;DHT22;5030;51.532;6.766;2022-08-21T13:08:02;26.40;1.00
9980;DHT22;5030;51.532;6.766;2022-08-21T13:10:30;26.30;1.00
9980;DHT22;5030;51.532;6.766;2022-08-21T13:13:03;25.70;1.00
9980;DHT22;5030;51.532;6.766;2022-08-21T13:15:35;25.80;1.00
9980;DHT22;5030;51.532;6.766;2022-08-21T13:18:04;25.50;11.30
9980;DHT22;5030;51.532;6.766;2022-08-21T13:20:37;25.50;1.00
9980;DHT22;5030;51.532;6.766;2022-08-21T13:23:28;25.80;1.60
9980;DHT22;5030;51.532;6.766;2022-08-21T13:25:53;26.50;1.00
9980;DHT22;5030;51.532;6.766;2022-08-21T13:28:19;26.20;1.00
9980;DHT22;5030;51.532;6.766;2022-08-21T13:30:46;26.10;1.00
9980;DHT22;5030;51.532;6.766;2022-08-21T13:33:15;26.00;1.00
9980;DHT22;5030;51.532;6.766;2022-08-21T13:38:32;25.60;1.00
9980;DHT22;5030;51.532;6.766;2022-08-21T13:43:55;25.20;1.00
9980;DHT22;5030;51.532;6.766;2022-08-21T13:46:24;25.30;6.00
9980;DHT22;5030;51.532;6.766;2022-08-21T13:48:51;25.70;1.20
9980;DHT22;5030;51.532;6.766;2022-08-21T13:51:20;25.90;1.00
9980;DHT22;5030;51.532;6.766;2022-08-21T13:53:49;26.50;1.00
9980;DHT22;5030;51.532;6.766;2022-08-21T13:56:43;26.50;1.00
9980;DHT22;5030;51.532;6.766;2022-08-21T13:59:09;25.80;1.00
9980;DHT22;5030;51.532;6.766;2022-08-21T14:01:47;25.60;1.00
9980;DHT22;5030;51.532;6.766;2022-08-21T14:04:23;25.40;1.00
9980;DHT22;5030;51.532;6.766;2022-08-21T14:06:50;25.10;1.00
9980;DHT22;5030;51.532;6.766;2022-08-21T14:09:32;25.10;1.00
9980;DHT22;5030;51.532;6.766;2022-08-21T14:12:02;25.10;1.00
9980;DHT22;5030;51.532;6.766;2022-08-21T14:14:32;25.10;1.00
9980;DHT22;5030;51.532;6.766;2022-08-21T14:17:02;24.90;1.00
9980;DHT22;5030;51.532;6.766;2022-08-21T14:19:46;24.90;1.00
9980;DHT22;5030;51.532;6.766;2022-08-21T14:27:37;24.80;1.00
9980;DHT22;5030;51.532;6.766;2022-08-21T14:30:17;25.30;1.00
9980;DHT22;5030;51.532;6.766;2022-08-21T14:32:43;25.80;1.00
9980;DHT22;5030;51.532;6.766;2022-08-21T14:35:10;26.40;1.00
9980;DHT22;5030;51.532;6.766;2022-08-21T14:37:36;26.60;1.00
9980;DHT22;5030;51.532;6.766;2022-08-21T14:40:04;26.60;1.00
9980;DHT22;5030;51.532;6.766;2022-08-21T14:42:31;27.00;1.00
9980;DHT22;5030;51.532;6.766;2022-08-21T14:45:03;27.50;1.00
9980;DHT22;5030;51.532;6.766;2022-08-21T14:47:30;27.10;1.00
9980;DHT22;5030;51.532;6.766;2022-08-21T14:49:56;27.40;1.00
9980;DHT22;5030;51.532;6.766;2022-08-21T14:52:22;27.40;1.00
9980;DHT22;5030;51.532;6.766;2022-08-21T14:54:49;27.80;1.00
9980;DHT22;5030;51.532;6.766;2022-08-21T14:57:15;28.00;1.00
9980;DHT22;5030;51.532;6.766;2022-08-21T14:59:41;28.50;1.00
9980;DHT22;5030;51.532;6.766;2022-08-21T15:02:08;28.60;1.00
9980;DHT22;5030;51.532;6.766;2022-08-21T15:04:34;28.40;1.00
9980;DHT22;5030;51.532;6.766;2022-08-21T15:07:00;27.70;1.00
9980;DHT22;5030;51.532;6.766;2022-08-21T15:09:26;27.80;1.00
9980;DHT22;5030;51.532;6.766;2022-08-21T15:11:55;27.80;1.00
9980;DHT22;5030;51.532;6.766;2022-08-21T15:14:27;28.10;1.00
9980;DHT22;5030;51.532;6.766;2022-08-21T15:16:54;27.30;1.00
9980;DHT22;5030;51.532;6.766;2022-08-21T15:19:19;26.70;1.00
9980;DHT22;5030;51.532;6.766;2022-08-21T15:21:45;26.90;1.00
9980;DHT22;5030;51.532;6.766;2022-08-21T15:24:11;27.70;1.00
9980;DHT22;5030;51.532;6.766;2022-08-21T15:26:36;28.20;1.00
9980;DHT22;5030;51.532;6.766;2022-08-21T15:29:03;28.00;1.00
9980;DHT22;5030;51.532;6.766;2022-08-21T15:31:30;28.40;1.00
9980;DHT22;5030;51.532;6.766;2022-08-21T15:33:56;28.40;1.00
9980;DHT22;5030;51.532;6.766;2022-08-21T15:36:22;28.90;1.00
9980;DHT22;5030;51.532;6.766;2022-08-21T15:38:48;28.60;1.00
9980;DHT22;5030;51.532;6.766;2022-08-21T15:41:14;28.30;1.00
9980;DHT22;5030;51.532;6.766;2022-08-21T15:43:49;28.50;1.00
9980;DHT22;5030;51.532;6.766;2022-08-21T15:46:17;28.50;1.00
9980;DHT22;5030;51.532;6.766;2022-08-21T15:48:44;28.10;1.00
9980;DHT22;5030;51.532;6.766;2022-08-21T15:51:12;28.00;1.00
9980;DHT22;5030;51.532;6.766;2022-08-21T15:53:38;28.20;1.00
9980;DHT22;5030;51.532;6.766;2022-08-21T15:56:06;28.10;1.00
9980;DHT22;5030;51.532;6.766;2022-08-21T15:58:36;28.10;1.00
9980;DHT22;5030;51.532;6.766;2022-08-21T16:01:02;28.30;1.00
9980;DHT22;5030;51.532;6.766;2022-08-21T16:03:28;29.00;1.00
9980;DHT22;5030;51.532;6.766;2022-08-21T16:05:54;29.20;1.00
9980;DHT22;5030;51.532;6.766;2022-08-21T16:08:22;28.70;1.00
9980;DHT22;5030;51.532;6.766;2022-08-21T16:10:48;28.70;1.00
9980;DHT22;5030;51.532;6.766;2022-08-21T16:13:22;28.40;1.00
9980;DHT22;5030;51.532;6.766;2022-08-21T16:15:49;27.60;1.00
9980;DHT22;5030;51.532;6.766;2022-08-21T16:18:15;27.20;1.00
9980;DHT22;5030;51.532;6.766;2022-08-21T16:20:41;27.20;1.00
9980;DHT22;5030;51.532;6.766;2022-08-21T16:23:07;27.50;1.00
9980;DHT22;5030;51.532;6.766;2022-08-21T16:25:36;27.80;1.00
9980;DHT22;5030;51.532;6.766;2022-08-21T16:28:04;27.90;1.00
9980;DHT22;5030;51.532;6.766;2022-08-21T16:30:30;27.30;1.00
9980;DHT22;5030;51.532;6.766;2022-08-21T16:32:58;27.10;1.00
9980;DHT22;5030;51.532;6.766;2022-08-21T16:35:25;26.60;1.00
9980;DHT22;5030;51.532;6.766;2022-08-21T16:37:50;26.10;1.00
9980;DHT22;5030;51.532;6.766;2022-08-21T16:40:16;26.30;1.00
9980;DHT22;5030;51.532;6.766;2022-08-21T16:42:42;26.10;1.00
9980;DHT22;5030;51.532;6.766;2022-08-21T16:45:14;25.90;1.00
9980;DHT22;5030;51.532;6.766;2022-08-21T16:47:41;25.90;1.00
9980;DHT22;5030;51.532;6.766;2022-08-21T16:50:08;25.50;1.00
9980;DHT22;5030;51.532;6.766;2022-08-21T16:52:34;25.40;1.00
9980;DHT22;5030;51.532;6.766;2022-08-21T16:55:00;25.60;1.00
9980;DHT22;5030;51.532;6.766;2022-08-21T16:57:25;25.60;1.00
9980;DHT22;5030;51.532;6.766;2022-08-21T16:59:52;25.60;1.00
9980;DHT22;5030;51.532;6.766;2022-08-21T17:02:34;25.60;1.00
9980;DHT22;5030;51.532;6.766;2022-08-21T17:05:01;25.50;1.00
9980;DHT22;5030;51.532;6.766;2022-08-21T17:07:27;25.30;1.00
9980;DHT22;5030;51.532;6.766;2022-08-21T17:09:53;25.10;1.00
9980;DHT22;5030;51.532;6.766;2022-08-21T17:12:19;25.00;1.00
9980;DHT22;5030;51.532;6.766;2022-08-21T17:14:46;24.80;1.00
9980;DHT22;5030;51.532;6.766;2022-08-21T17:17:12;24.60;1.00
9980;DHT22;5030;51.532;6.766;2022-08-21T17:19:39;24.40;1.00
9980;DHT22;5030;51.532;6.766;2022-08-21T17:22:05;24.30;1.00
9980;DHT22;5030;51.532;6.766;2022-08-21T17:24:32;24.20;1.00
9980;DHT22;5030;51.532;6.766;2022-08-21T17:26:58;24.10;1.00
9980;DHT22;5030;51.532;6.766;2022-08-21T17:29:32;24.00;1.00
9980;DHT22;5030;51.532;6.766;2022-08-21T17:31:58;23.80;1.00
9980;DHT22;5030;51.532;6.766;2022-08-21T17:34:24;23.80;1.00
9980;DHT22;5030;51.532;6.766;2022-08-21T17:36:50;23.70;1.00
9980;DHT22;5030;51.532;6.766;2022-08-21T17:39:16;23.60;1.00
9980;DHT22;5030;51.532;6.766;2022-08-21T17:41:43;23.50;1.00
9980;DHT22;5030;51.532;6.766;2022-08-21T17:44:11;23.50;1.00
9980;DHT22;5030;51.532;6.766;2022-08-21T17:46:38;23.30;1.00
9980;DHT22;5030;51.532;6.766;2022-08-21T17:49:05;23.20;1.00
9980;DHT22;5030;51.532;6.766;2022-08-21T17:51:31;23.20;1.00
9980;DHT22;5030;51.532;6.766;2022-08-21T17:53:57;23.20;1.00
9980;DHT22;5030;51.532;6.766;2022-08-21T17:56:29;23.20;1.00
9980;DHT22;5030;51.532;6.766;2022-08-21T17:58:55;23.00;1.00
9980;DHT22;5030;51.532;6.766;2022-08-21T18:01:21;23.00;1.00